Decoded Metar for VTCL (LAMPANG in THAILAND) (IATA:LPT) | Meteo·Mobile Aviation Weather
aviador You're here:

VTCL Decoded Metar

LAMPANG in THAILAND
Report Time2019-10-21 07:00:00
UTC Time2019-10-21 07:48:08
Flight Rules vfr VFR
WindVRB at 02 kt
Visibility9999 m
Phenomena:N/A
Clouds:Few 035 Hf
Expected CloudBase > 5,200 ft AGL from Temp-Dew spread
CeilingNone
Temp35°C (ISA +22)
Dew Point22°C (47% RH)
Heat Index39.5°C
QNH1011 hPa
Density Alt3,655 ft
Elevation794 ft
Report Wrong Elevation
Raw Report
VTCL 210700Z VRB02KT 9999 FEW035 35/22 Q1011 NOSIG=

Extra information for VTCL:More info

Metar Taf Metar & Taf Last 4 Metars F.Rules Stats Wind Profile Meteogram Temp Stats Airport Information Weather charts Add Link Nearby VenuesMetar ALERT Operation Metar Decoded Social comments